sensor_id;sensor_type;location;lat;lon;timestamp;pressure;altitude;pressure_sealevel;temperature;humidity
4024;BME280;2026;51.002;13.668;2024-01-15T00:03:41;97233.84;;;0.52;70.70
4024;BME280;2026;51.002;13.668;2024-01-15T00:08:48;97231.16;;;0.45;71.73
4024;BME280;2026;51.002;13.668;2024-01-15T00:13:51;97233.13;;;0.28;72.52
4024;BME280;2026;51.002;13.668;2024-01-15T00:18:55;97236.09;;;0.40;72.25
4024;BME280;2026;51.002;13.668;2024-01-15T00:23:58;97231.25;;;0.37;71.46
4024;BME280;2026;51.002;13.668;2024-01-15T00:29:01;97228.13;;;0.27;71.85
4024;BME280;2026;51.002;13.668;2024-01-15T00:34:06;97223.81;;;0.34;71.80
4024;BME280;2026;51.002;13.668;2024-01-15T00:39:09;97214.22;;;0.34;72.17
4024;BME280;2026;51.002;13.668;2024-01-15T00:44:12;97198.09;;;0.24;71.95
4024;BME280;2026;51.002;13.668;2024-01-15T00:49:16;97198.09;;;0.24;71.73
4024;BME280;2026;51.002;13.668;2024-01-15T00:54:19;97209.66;;;0.36;70.96
4024;BME280;2026;51.002;13.668;2024-01-15T00:59:23;97198.81;;;0.33;71.22
4024;BME280;2026;51.002;13.668;2024-01-15T01:04:27;97195.59;;;0.31;71.57
4024;BME280;2026;51.002;13.668;2024-01-15T01:09:30;97199.91;;;0.24;71.40
4024;BME280;2026;51.002;13.668;2024-01-15T01:14:33;97182.78;;;0.29;71.41
4024;BME280;2026;51.002;13.668;2024-01-15T01:19:38;97185.19;;;0.31;70.99
4024;BME280;2026;51.002;13.668;2024-01-15T01:24:41;97175.19;;;0.13;71.50
4024;BME280;2026;51.002;13.668;2024-01-15T01:29:44;97167.66;;;0.03;71.54
4024;BME280;2026;51.002;13.668;2024-01-15T01:34:48;97172.03;;;0.17;71.25
4024;BME280;2026;51.002;13.668;2024-01-15T01:39:51;97168.47;;;0.18;70.73
4024;BME280;2026;51.002;13.668;2024-01-15T01:44:54;97150.13;;;0.20;70.65
4024;BME280;2026;51.002;13.668;2024-01-15T01:49:59;97133.09;;;0.17;70.68
4024;BME280;2026;51.002;13.668;2024-01-15T01:55:03;97151.19;;;0.11;70.71
4024;BME280;2026;51.002;13.668;2024-01-15T02:00:09;97162.28;;;0.20;70.08
4024;BME280;2026;51.002;13.668;2024-01-15T02:05:18;97146.97;;;0.25;70.10
4024;BME280;2026;51.002;13.668;2024-01-15T02:10:21;97141.94;;;0.23;69.95
4024;BME280;2026;51.002;13.668;2024-01-15T02:15:24;97153.78;;;0.11;69.85
4024;BME280;2026;51.002;13.668;2024-01-15T02:20:29;97155.22;;;0.13;69.79
4024;BME280;2026;51.002;13.668;2024-01-15T02:25:33;97146.63;;;0.13;69.84
4024;BME280;2026;51.002;13.668;2024-01-15T02:30:38;97132.94;;;0.04;70.06
4024;BME280;2026;51.002;13.668;2024-01-15T02:35:41;97139.84;;;-0.03;69.85
4024;BME280;2026;51.002;13.668;2024-01-15T02:40:46;97133.38;;;-0.07;70.23
4024;BME280;2026;51.002;13.668;2024-01-15T02:45:49;97132.75;;;-0.09;70.31
4024;BME280;2026;51.002;13.668;2024-01-15T02:50:52;97123.25;;;-0.02;70.35
4024;BME280;2026;51.002;13.668;2024-01-15T02:55:56;97121.03;;;-0.05;70.06
4024;BME280;2026;51.002;13.668;2024-01-15T03:00:59;97117.91;;;-0.15;70.35
4024;BME280;2026;51.002;13.668;2024-01-15T03:06:03;97125.31;;;-0.12;70.57
4024;BME280;2026;51.002;13.668;2024-01-15T03:11:08;97119.00;;;-0.25;70.71
4024;BME280;2026;51.002;13.668;2024-01-15T03:16:11;97097.47;;;-0.19;69.83
4024;BME280;2026;51.002;13.668;2024-01-15T03:21:14;97118.59;;;-0.22;69.78
4024;BME280;2026;51.002;13.668;2024-01-15T03:26:18;97109.59;;;-0.26;69.45
4024;BME280;2026;51.002;13.668;2024-01-15T03:31:21;97121.03;;;-0.35;69.78
4024;BME280;2026;51.002;13.668;2024-01-15T03:36:24;97118.34;;;-0.27;69.35
4024;BME280;2026;51.002;13.668;2024-01-15T03:41:28;97102.41;;;-0.39;69.91
4024;BME280;2026;51.002;13.668;2024-01-15T03:46:32;97114.41;;;-0.38;69.85
4024;BME280;2026;51.002;13.668;2024-01-15T03:51:35;97113.38;;;-0.66;71.14
4024;BME280;2026;51.002;13.668;2024-01-15T03:56:39;97101.50;;;-0.61;71.14
4024;BME280;2026;51.002;13.668;2024-01-15T04:01:48;97133.22;;;-0.73;72.34
4024;BME280;2026;51.002;13.668;2024-01-15T04:06:51;97131.44;;;-0.73;71.96
4024;BME280;2026;51.002;13.668;2024-01-15T04:11:55;97134.22;;;-0.60;71.59
4024;BME280;2026;51.002;13.668;2024-01-15T04:16:58;97117.41;;;-0.64;71.86
4024;BME280;2026;51.002;13.668;2024-01-15T04:22:01;97119.13;;;-0.71;71.78
4024;BME280;2026;51.002;13.668;2024-01-15T04:27:06;97101.13;;;-0.72;71.66
4024;BME280;2026;51.002;13.668;2024-01-15T04:32:09;97086.28;;;-0.79;71.20
4024;BME280;2026;51.002;13.668;2024-01-15T04:37:13;97109.25;;;-0.76;71.34
4024;BME280;2026;51.002;13.668;2024-01-15T04:42:17;97116.69;;;-0.72;70.88
4024;BME280;2026;51.002;13.668;2024-01-15T04:47:20;97104.94;;;-0.83;70.88
4024;BME280;2026;51.002;13.668;2024-01-15T04:52:23;97104.16;;;-0.84;70.70
4024;BME280;2026;51.002;13.668;2024-01-15T04:57:27;97113.06;;;-0.86;72.15
4024;BME280;2026;51.002;13.668;2024-01-15T05:02:30;97106.91;;;-0.85;70.84
4024;BME280;2026;51.002;13.668;2024-01-15T05:07:33;97108.78;;;-0.94;70.62
4024;BME280;2026;51.002;13.668;2024-01-15T05:12:38;97116.31;;;-0.84;70.12
4024;BME280;2026;51.002;13.668;2024-01-15T05:17:41;97129.97;;;-0.90;70.80
4024;BME280;2026;51.002;13.668;2024-01-15T05:22:44;97117.81;;;-0.90;70.27
4024;BME280;2026;51.002;13.668;2024-01-15T05:27:48;97130.88;;;-0.83;70.34
4024;BME280;2026;51.002;13.668;2024-01-15T05:32:51;97123.84;;;-0.98;70.11
4024;BME280;2026;51.002;13.668;2024-01-15T05:37:54;97110.78;;;-1.04;70.47
4024;BME280;2026;51.002;13.668;2024-01-15T05:42:59;97119.38;;;-1.04;70.23
4024;BME280;2026;51.002;13.668;2024-01-15T05:48:02;97111.50;;;-1.10;70.26
4024;BME280;2026;51.002;13.668;2024-01-15T05:53:05;97127.16;;;-1.04;69.92
4024;BME280;2026;51.002;13.668;2024-01-15T05:58:10;97108.75;;;-1.09;70.00
4024;BME280;2026;51.002;13.668;2024-01-15T06:03:13;97106.84;;;-1.15;69.89
4024;BME280;2026;51.002;13.668;2024-01-15T06:08:16;97119.09;;;-1.09;69.91
4024;BME280;2026;51.002;13.668;2024-01-15T06:13:21;97125.16;;;-1.17;69.79
4024;BME280;2026;51.002;13.668;2024-01-15T06:18:23;97115.34;;;-1.06;69.46
4024;BME280;2026;51.002;13.668;2024-01-15T06:23:27;97104.97;;;-1.06;69.06
4024;BME280;2026;51.002;13.668;2024-01-15T06:28:31;97109.47;;;-1.00;69.04
4024;BME280;2026;51.002;13.668;2024-01-15T06:33:34;97093.75;;;-0.99;68.51
4024;BME280;2026;51.002;13.668;2024-01-15T06:38:37;97097.75;;;-0.96;68.53
4024;BME280;2026;51.002;13.668;2024-01-15T06:43:41;97099.91;;;-1.00;68.98
4024;BME280;2026;51.002;13.668;2024-01-15T06:48:44;97104.13;;;-0.99;68.22
4024;BME280;2026;51.002;13.668;2024-01-15T06:53:47;97096.69;;;-1.02;68.71
4024;BME280;2026;51.002;13.668;2024-01-15T06:58:51;97095.06;;;-1.03;68.05
4024;BME280;2026;51.002;13.668;2024-01-15T07:03:54;97108.75;;;-1.09;68.35
4024;BME280;2026;51.002;13.668;2024-01-15T07:08:57;97098.38;;;-1.09;68.11
4024;BME280;2026;51.002;13.668;2024-01-15T07:14:02;97091.06;;;-1.05;67.90
4024;BME280;2026;51.002;13.668;2024-01-15T07:19:05;97097.47;;;-1.01;67.68
4024;BME280;2026;51.002;13.668;2024-01-15T07:24:09;97102.94;;;-0.96;67.20
4024;BME280;2026;51.002;13.668;2024-01-15T07:29:14;97103.31;;;-0.99;67.42
4024;BME280;2026;51.002;13.668;2024-01-15T07:34:17;97140.06;;;-0.96;67.53
4024;BME280;2026;51.002;13.668;2024-01-15T07:39:20;97118.31;;;-0.95;67.64
4024;BME280;2026;51.002;13.668;2024-01-15T07:44:26;97131.13;;;-0.93;68.07
4024;BME280;2026;51.002;13.668;2024-01-15T07:49:29;97113.84;;;-1.01;67.63
4024;BME280;2026;51.002;13.668;2024-01-15T07:54:32;97123.84;;;-0.98;67.72
4024;BME280;2026;51.002;13.668;2024-01-15T07:59:36;97117.63;;;-0.88;67.21
4024;BME280;2026;51.002;13.668;2024-01-15T08:04:39;97120.47;;;-0.98;67.28
4024;BME280;2026;51.002;13.668;2024-01-15T08:09:42;97106.13;;;-0.86;66.96
4024;BME280;2026;51.002;13.668;2024-01-15T08:14:47;97126.13;;;-0.80;66.90
4024;BME280;2026;51.002;13.668;2024-01-15T08:19:50;97133.63;;;-0.85;66.68
4024;BME280;2026;51.002;13.668;2024-01-15T08:24:53;97141.69;;;-0.80;66.58
4024;BME280;2026;51.002;13.668;2024-01-15T08:29:58;97136.72;;;-0.66;66.28
4024;BME280;2026;51.002;13.668;2024-01-15T08:35:01;97127.75;;;-0.79;66.52
4024;BME280;2026;51.002;13.668;2024-01-15T08:40:06;97128.84;;;-0.73;66.26
4024;BME280;2026;51.002;13.668;2024-01-15T08:45:11;97143.06;;;-0.69;66.27
4024;BME280;2026;51.002;13.668;2024-01-15T08:50:14;97139.00;;;-0.48;65.91
4024;BME280;2026;51.002;13.668;2024-01-15T08:55:17;97131.75;;;-0.53;65.48
4024;BME280;2026;51.002;13.668;2024-01-15T09:00:21;97131.22;;;-0.48;65.41
4024;BME280;2026;51.002;13.668;2024-01-15T09:05:24;97134.53;;;-0.54;65.20
4024;BME280;2026;51.002;13.668;2024-01-15T09:10:27;97146.59;;;-0.47;64.81
4024;BME280;2026;51.002;13.668;2024-01-15T09:15:32;97154.75;;;-0.20;64.13
4024;BME280;2026;51.002;13.668;2024-01-15T09:20:35;97163.38;;;-0.20;64.21
4024;BME280;2026;51.002;13.668;2024-01-15T09:25:40;97150.56;;;-0.06;63.74
4024;BME280;2026;51.002;13.668;2024-01-15T09:30:44;97152.34;;;0.08;63.00
4024;BME280;2026;51.002;13.668;2024-01-15T09:35:49;97157.94;;;-0.10;63.54
4024;BME280;2026;51.002;13.668;2024-01-15T09:40:52;97157.19;;;-0.04;62.86
4024;BME280;2026;51.002;13.668;2024-01-15T09:45:57;97149.03;;;-0.01;63.29
4024;BME280;2026;51.002;13.668;2024-01-15T09:51:01;97162.38;;;0.11;62.68
4024;BME280;2026;51.002;13.668;2024-01-15T09:56:04;97157.44;;;0.31;61.79
4024;BME280;2026;51.002;13.668;2024-01-15T10:01:09;97155.84;;;0.15;62.40
4024;BME280;2026;51.002;13.668;2024-01-15T10:06:15;97143.94;;;0.06;62.50
4024;BME280;2026;51.002;13.668;2024-01-15T10:11:23;97169.72;;;0.08;62.29
4024;BME280;2026;51.002;13.668;2024-01-15T10:16:27;97155.84;;;0.15;61.91
4024;BME280;2026;51.002;13.668;2024-01-15T10:21:31;97157.06;;;0.34;61.66
4024;BME280;2026;51.002;13.668;2024-01-15T10:26:36;97140.00;;;0.62;61.35
4024;BME280;2026;51.002;13.668;2024-01-15T10:31:40;97155.91;;;0.37;61.37
4024;BME280;2026;51.002;13.668;2024-01-15T10:36:45;97124.69;;;0.52;61.35
4024;BME280;2026;51.002;13.668;2024-01-15T10:41:54;97138.63;;;0.66;60.75
4024;BME280;2026;51.002;13.668;2024-01-15T10:46:58;97123.00;;;0.44;61.17
4024;BME280;2026;51.002;13.668;2024-01-15T10:52:03;97127.03;;;0.47;61.37
4024;BME280;2026;51.002;13.668;2024-01-15T10:57:06;97099.44;;;0.46;61.05
4024;BME280;2026;51.002;13.668;2024-01-15T11:02:10;97101.94;;;0.54;60.30
4024;BME280;2026;51.002;13.668;2024-01-15T11:07:14;97124.03;;;0.65;60.62
4024;BME280;2026;51.002;13.668;2024-01-15T11:12:17;97094.31;;;0.52;60.99
4024;BME280;2026;51.002;13.668;2024-01-15T11:17:22;97103.75;;;0.75;60.14
4024;BME280;2026;51.002;13.668;2024-01-15T11:22:49;97111.78;;;0.59;60.32
4024;BME280;2026;51.002;13.668;2024-01-15T11:27:52;97116.06;;;0.66;60.08
4024;BME280;2026;51.002;13.668;2024-01-15T11:32:58;97102.69;;;0.69;60.54
4024;BME280;2026;51.002;13.668;2024-01-15T11:38:01;97092.91;;;0.71;60.61
4024;BME280;2026;51.002;13.668;2024-01-15T11:43:04;97099.34;;;0.54;60.78
4024;BME280;2026;51.002;13.668;2024-01-15T11:48:13;97094.94;;;0.76;60.26
4024;BME280;2026;51.002;13.668;2024-01-15T11:53:27;97096.19;;;0.80;60.44
4024;BME280;2026;51.002;13.668;2024-01-15T11:58:35;97083.88;;;0.89;60.00
4024;BME280;2026;51.002;13.668;2024-01-15T12:03:40;97095.94;;;0.75;60.59
4024;BME280;2026;51.002;13.668;2024-01-15T12:08:43;97095.00;;;0.83;60.74
4024;BME280;2026;51.002;13.668;2024-01-15T12:13:46;97075.16;;;0.75;60.71
4024;BME280;2026;51.002;13.668;2024-01-15T12:18:50;97085.19;;;0.57;62.05
4024;BME280;2026;51.002;13.668;2024-01-15T12:23:55;97088.41;;;0.80;62.31
4024;BME280;2026;51.002;13.668;2024-01-15T12:29:01;97093.28;;;0.68;63.02
4024;BME280;2026;51.002;13.668;2024-01-15T12:34:06;97095.53;;;0.71;64.15
4024;BME280;2026;51.002;13.668;2024-01-15T12:39:11;97103.97;;;0.59;65.29
4024;BME280;2026;51.002;13.668;2024-01-15T12:44:14;97096.06;;;0.45;66.89
4024;BME280;2026;51.002;13.668;2024-01-15T12:49:19;97088.66;;;0.27;68.43
4024;BME280;2026;51.002;13.668;2024-01-15T12:54:22;97099.13;;;0.34;68.58
4024;BME280;2026;51.002;13.668;2024-01-15T12:59:26;97078.81;;;0.23;70.78
4024;BME280;2026;51.002;13.668;2024-01-15T13:04:31;97097.28;;;0.13;71.93
4024;BME280;2026;51.002;13.668;2024-01-15T13:09:35;97073.47;;;0.09;71.59
4024;BME280;2026;51.002;13.668;2024-01-15T13:14:38;97084.31;;;-0.02;72.33
4024;BME280;2026;51.002;13.668;2024-01-15T13:19:44;97089.06;;;-0.06;72.66
4024;BME280;2026;51.002;13.668;2024-01-15T13:24:47;97090.03;;;-0.07;72.38
4024;BME280;2026;51.002;13.668;2024-01-15T13:29:50;97090.78;;;0.02;72.95
4024;BME280;2026;51.002;13.668;2024-01-15T13:34:55;97097.63;;;0.10;73.24
4024;BME280;2026;51.002;13.668;2024-01-15T13:39:58;97107.84;;;0.11;73.08
4024;BME280;2026;51.002;13.668;2024-01-15T13:45:01;97106.19;;;-0.11;74.37
4024;BME280;2026;51.002;13.668;2024-01-15T13:50:09;97114.25;;;-0.36;75.76
4024;BME280;2026;51.002;13.668;2024-01-15T13:55:12;97120.41;;;-0.37;75.87
4024;BME280;2026;51.002;13.668;2024-01-15T14:00:16;97122.81;;;-0.21;75.37
4024;BME280;2026;51.002;13.668;2024-01-15T14:05:23;97126.78;;;-0.25;75.59
4024;BME280;2026;51.002;13.668;2024-01-15T14:10:26;97141.00;;;-0.21;75.22
4024;BME280;2026;51.002;13.668;2024-01-15T14:15:29;97136.50;;;-0.27;75.62
4024;BME280;2026;51.002;13.668;2024-01-15T14:20:33;97137.41;;;-0.34;76.18
4024;BME280;2026;51.002;13.668;2024-01-15T14:25:36;97136.94;;;-0.53;76.57
4024;BME280;2026;51.002;13.668;2024-01-15T14:30:39;97147.00;;;-0.73;77.68
4024;BME280;2026;51.002;13.668;2024-01-15T14:35:43;97151.59;;;-0.60;78.81
4024;BME280;2026;51.002;13.668;2024-01-15T14:40:46;97154.53;;;-0.63;79.53
4024;BME280;2026;51.002;13.668;2024-01-15T14:45:49;97167.06;;;-0.90;80.50
4024;BME280;2026;51.002;13.668;2024-01-15T14:50:54;97179.34;;;-0.84;80.55
4024;BME280;2026;51.002;13.668;2024-01-15T14:55:57;97163.28;;;-0.79;80.42
4024;BME280;2026;51.002;13.668;2024-01-15T15:01:00;97165.09;;;-1.11;81.43
4024;BME280;2026;51.002;13.668;2024-01-15T15:06:05;97166.31;;;-0.99;80.85
4024;BME280;2026;51.002;13.668;2024-01-15T15:11:11;97147.13;;;-0.89;80.15
4024;BME280;2026;51.002;13.668;2024-01-15T15:16:15;97154.56;;;-0.86;78.46
4024;BME280;2026;51.002;13.668;2024-01-15T15:21:19;97163.03;;;-0.93;78.50
4024;BME280;2026;51.002;13.668;2024-01-15T15:26:22;97169.88;;;-0.77;77.40
4024;BME280;2026;51.002;13.668;2024-01-15T15:31:25;97178.81;;;-0.79;76.97
4024;BME280;2026;51.002;13.668;2024-01-15T15:36:31;97179.28;;;-0.76;76.39
4024;BME280;2026;51.002;13.668;2024-01-15T15:41:34;97195.63;;;-0.75;76.75
4024;BME280;2026;51.002;13.668;2024-01-15T15:46:38;97190.16;;;-0.57;75.89
4024;BME280;2026;51.002;13.668;2024-01-15T15:51:42;97195.34;;;-0.80;76.26
4024;BME280;2026;51.002;13.668;2024-01-15T15:56:45;97192.69;;;-0.72;75.83
4024;BME280;2026;51.002;13.668;2024-01-15T16:01:52;97208.09;;;-0.70;76.52
4024;BME280;2026;51.002;13.668;2024-01-15T16:06:56;97199.13;;;-0.83;77.70
4024;BME280;2026;51.002;13.668;2024-01-15T16:11:59;97209.00;;;-0.86;78.83
4024;BME280;2026;51.002;13.668;2024-01-15T16:17:02;97218.81;;;-0.73;78.24
4024;BME280;2026;51.002;13.668;2024-01-15T16:22:26;97216.25;;;-0.82;77.50
4024;BME280;2026;51.002;13.668;2024-01-15T16:27:49;97222.84;;;-0.71;76.41
4024;BME280;2026;51.002;13.668;2024-01-15T16:32:52;97221.91;;;-0.78;76.64
4024;BME280;2026;51.002;13.668;2024-01-15T16:37:57;97229.06;;;-0.80;76.25
4024;BME280;2026;51.002;13.668;2024-01-15T16:43:00;97247.44;;;-0.67;75.74
4024;BME280;2026;51.002;13.668;2024-01-15T16:48:03;97238.81;;;-0.82;78.30
4024;BME280;2026;51.002;13.668;2024-01-15T16:53:08;97253.72;;;-0.84;78.47
4024;BME280;2026;51.002;13.668;2024-01-15T16:58:11;97269.97;;;-0.90;79.68
4024;BME280;2026;51.002;13.668;2024-01-15T17:03:16;97267.50;;;-0.84;79.30
4024;BME280;2026;51.002;13.668;2024-01-15T17:08:20;97256.44;;;-0.78;78.62
4024;BME280;2026;51.002;13.668;2024-01-15T17:13:23;97264.63;;;-0.66;77.29
4024;BME280;2026;51.002;13.668;2024-01-15T17:18:26;97266.06;;;-0.63;76.13
4024;BME280;2026;51.002;13.668;2024-01-15T17:23:31;97251.50;;;-0.64;75.39
4024;BME280;2026;51.002;13.668;2024-01-15T17:28:34;97262.38;;;-0.69;75.20
4024;BME280;2026;51.002;13.668;2024-01-15T17:33:37;97278.56;;;-0.67;75.19
4024;BME280;2026;51.002;13.668;2024-01-15T17:38:41;97274.72;;;-0.71;75.08
4024;BME280;2026;51.002;13.668;2024-01-15T17:43:44;97275.28;;;-0.61;74.55
4024;BME280;2026;51.002;13.668;2024-01-15T17:48:47;97296.72;;;-0.67;75.77
4024;BME280;2026;51.002;13.668;2024-01-15T17:53:52;97283.88;;;-0.60;76.81
4024;BME280;2026;51.002;13.668;2024-01-15T17:58:55;97286.69;;;-0.70;76.52
4024;BME280;2026;51.002;13.668;2024-01-15T18:03:59;97297.50;;;-0.66;77.12
4024;BME280;2026;51.002;13.668;2024-01-15T18:09:06;97296.22;;;-0.62;77.48
4024;BME280;2026;51.002;13.668;2024-01-15T18:14:10;97297.34;;;-0.65;78.05
4024;BME280;2026;51.002;13.668;2024-01-15T18:19:14;97314.13;;;-0.76;78.48
4024;BME280;2026;51.002;13.668;2024-01-15T18:24:20;97310.03;;;-0.70;78.45
4024;BME280;2026;51.002;13.668;2024-01-15T18:29:23;97304.03;;;-0.70;80.38
4024;BME280;2026;51.002;13.668;2024-01-15T18:34:26;97311.16;;;-0.64;79.09
4024;BME280;2026;51.002;13.668;2024-01-15T18:39:30;97318.22;;;-0.58;78.98
4024;BME280;2026;51.002;13.668;2024-01-15T18:44:33;97330.78;;;-0.70;79.61
4024;BME280;2026;51.002;13.668;2024-01-15T18:49:36;97336.06;;;-0.95;81.01
4024;BME280;2026;51.002;13.668;2024-01-15T18:54:41;97327.88;;;-0.75;80.78
4024;BME280;2026;51.002;13.668;2024-01-15T18:59:44;97331.06;;;-0.96;81.50
4024;BME280;2026;51.002;13.668;2024-01-15T19:04:48;97321.69;;;-0.97;81.61
4024;BME280;2026;51.002;13.668;2024-01-15T19:09:52;97330.06;;;-0.87;80.81
4024;BME280;2026;51.002;13.668;2024-01-15T19:14:55;97332.56;;;-0.70;79.93
4024;BME280;2026;51.002;13.668;2024-01-15T19:19:59;97344.25;;;-0.75;80.34
4024;BME280;2026;51.002;13.668;2024-01-15T19:25:04;97348.00;;;-0.77;81.77
4024;BME280;2026;51.002;13.668;2024-01-15T19:30:09;97353.53;;;-0.80;82.61
4024;BME280;2026;51.002;13.668;2024-01-15T19:35:13;97345.88;;;-0.73;82.51
4024;BME280;2026;51.002;13.668;2024-01-15T19:40:17;97344.94;;;-0.81;82.78
4024;BME280;2026;51.002;13.668;2024-01-15T19:45:20;97345.78;;;-0.88;82.15
4024;BME280;2026;51.002;13.668;2024-01-15T19:50:23;97345.19;;;-0.99;82.19
4024;BME280;2026;51.002;13.668;2024-01-15T19:55:28;97351.28;;;-0.91;80.77
4024;BME280;2026;51.002;13.668;2024-01-15T20:00:31;97362.34;;;-0.98;79.92
4024;BME280;2026;51.002;13.668;2024-01-15T20:05:34;97363.56;;;-0.77;79.20
4024;BME280;2026;51.002;13.668;2024-01-15T20:10:38;97378.81;;;-0.82;78.37
4024;BME280;2026;51.002;13.668;2024-01-15T20:15:41;97378.44;;;-0.71;78.08
4024;BME280;2026;51.002;13.668;2024-01-15T20:20:44;97393.88;;;-0.78;78.89
4024;BME280;2026;51.002;13.668;2024-01-15T20:25:48;97397.94;;;-0.83;79.59
4024;BME280;2026;51.002;13.668;2024-01-15T20:30:51;97392.44;;;-0.88;82.74
4024;BME280;2026;51.002;13.668;2024-01-15T20:35:54;97412.25;;;-0.96;83.60
4024;BME280;2026;51.002;13.668;2024-01-15T20:40:59;97425.69;;;-0.92;83.27
4024;BME280;2026;51.002;13.668;2024-01-15T20:46:02;97421.13;;;-0.90;81.73
4024;BME280;2026;51.002;13.668;2024-01-15T20:51:05;97435.69;;;-0.81;80.65
4024;BME280;2026;51.002;13.668;2024-01-15T20:56:10;97442.47;;;-0.80;81.11
4024;BME280;2026;51.002;13.668;2024-01-15T21:01:15;97446.72;;;-0.79;83.13
4024;BME280;2026;51.002;13.668;2024-01-15T21:06:18;97442.19;;;-0.93;84.45
4024;BME280;2026;51.002;13.668;2024-01-15T21:11:23;97447.72;;;-1.04;85.90
4024;BME280;2026;51.002;13.668;2024-01-15T21:16:26;97451.13;;;-0.87;84.02
4024;BME280;2026;51.002;13.668;2024-01-15T21:21:29;97462.75;;;-0.83;82.40
4024;BME280;2026;51.002;13.668;2024-01-15T21:26:34;97468.72;;;-0.75;81.75
4024;BME280;2026;51.002;13.668;2024-01-15T21:31:37;97481.06;;;-0.77;81.92
4024;BME280;2026;51.002;13.668;2024-01-15T21:36:40;97492.09;;;-0.83;83.15
4024;BME280;2026;51.002;13.668;2024-01-15T21:41:45;97496.94;;;-0.80;85.51
4024;BME280;2026;51.002;13.668;2024-01-15T21:46:48;97507.16;;;-0.86;84.59
4024;BME280;2026;51.002;13.668;2024-01-15T21:51:52;97514.78;;;-0.85;83.10
4024;BME280;2026;51.002;13.668;2024-01-15T21:56:56;97527.13;;;-1.03;83.42
4024;BME280;2026;51.002;13.668;2024-01-15T22:01:59;97526.28;;;-0.71;82.29
4024;BME280;2026;51.002;13.668;2024-01-15T22:07:06;97531.28;;;-0.69;86.82
4024;BME280;2026;51.002;13.668;2024-01-15T22:12:10;97545.41;;;-0.72;85.77
4024;BME280;2026;51.002;13.668;2024-01-15T22:17:13;97561.63;;;-0.95;86.60
4024;BME280;2026;51.002;13.668;2024-01-15T22:22:16;97558.06;;;-1.02;87.48
4024;BME280;2026;51.002;13.668;2024-01-15T22:27:20;97566.47;;;-0.91;86.50
4024;BME280;2026;51.002;13.668;2024-01-15T22:32:23;97560.66;;;-0.94;86.63
4024;BME280;2026;51.002;13.668;2024-01-15T22:37:30;97567.47;;;-1.09;86.91
4024;BME280;2026;51.002;13.668;2024-01-15T22:42:35;97563.91;;;-1.00;85.12
4024;BME280;2026;51.002;13.668;2024-01-15T22:47:38;97572.16;;;-0.88;83.57
4024;BME280;2026;51.002;13.668;2024-01-15T22:52:41;97581.22;;;-0.84;81.53
4024;BME280;2026;51.002;13.668;2024-01-15T22:57:45;97583.66;;;-0.90;80.22
4024;BME280;2026;51.002;13.668;2024-01-15T23:02:49;97584.94;;;-0.70;77.62
4024;BME280;2026;51.002;13.668;2024-01-15T23:07:53;97586.72;;;-0.79;76.96
4024;BME280;2026;51.002;13.668;2024-01-15T23:12:57;97607.47;;;-0.79;75.39
4024;BME280;2026;51.002;13.668;2024-01-15T23:18:01;97598.91;;;-0.79;74.49
4024;BME280;2026;51.002;13.668;2024-01-15T23:23:04;97627.09;;;-0.68;74.00
4024;BME280;2026;51.002;13.668;2024-01-15T23:28:08;97622.22;;;-0.71;73.29
4024;BME280;2026;51.002;13.668;2024-01-15T23:33:11;97640.88;;;-0.76;73.19
4024;BME280;2026;51.002;13.668;2024-01-15T23:38:15;97650.28;;;-0.83;73.18
4024;BME280;2026;51.002;13.668;2024-01-15T23:43:19;97646.84;;;-0.75;72.96
4024;BME280;2026;51.002;13.668;2024-01-15T23:48:22;97657.22;;;-0.67;72.87
4024;BME280;2026;51.002;13.668;2024-01-15T23:53:25;97659.50;;;-0.80;73.31
4024;BME280;2026;51.002;13.668;2024-01-15T23:58:30;97668.59;;;-0.84;74.03
